CheckWX is a tool to help pilots better visualize weather data.  It is not intended as a substitute for an official pre-flight weather briefing.

07:13:44 UTC

UEEE TAF
Yakutsk Airport
Yakutsk, Russian Federation
TAF UEEE 200500Z 2006/2112 14003G08MPS 9999 SCT040CB TX29/2006Z TN12/2018Z TEMPO 2006/2012 VRB14MPS -TSRA

Jun-20@
06:00 UTC

Jun-20 @ 06:00 UTC

Jun-21@
12:00 UTC

Jun-21 @ 12:00 UTC

TAF UEEE 200500Z 2006/2112 14003G08MPS 9999 SCT040CB TX29/2006Z TN12/2018Z
Wind
  • 140° at 6 KTS
  • {Gusting to 16 KTS
Cloud Levels
  • Scattered at 4,000' AGL

Jun-20@
06:00 UTC

Jun-20 @ 06:00 UTC

Jun-20@
12:00 UTC

Jun-20 @ 12:00 UTC

TEMPO 2006/2012 VRB14MPS -TSRA

Temporary

Temporary Changes expected for less than half the time period

Wind
  • Variable at 27 KTS
Conditions
Light Thunderstorm, Light Rain